sensor_id;sensor_type;location;lat;lon;timestamp;pressure;altitude;pressure_sealevel;temperature;humidity
2192;BME280;1102;49.718;11.902;2023-02-16T00:00:50;97334.59;;;-2.73;100.00
2192;BME280;1102;49.718;11.902;2023-02-16T00:03:20;97350.47;;;-2.69;100.00
2192;BME280;1102;49.718;11.902;2023-02-16T00:05:47;97340.13;;;-2.69;100.00
2192;BME280;1102;49.718;11.902;2023-02-16T00:08:14;97307.78;;;-2.97;100.00
2192;BME280;1102;49.718;11.902;2023-02-16T00:10:41;97333.81;;;-2.73;100.00
2192;BME280;1102;49.718;11.902;2023-02-16T00:13:29;97302.41;;;-2.95;100.00
2192;BME280;1102;49.718;11.902;2023-02-16T00:18:41;97291.94;;;-3.00;100.00
2192;BME280;1102;49.718;11.902;2023-02-16T00:21:08;97315.41;;;-2.83;100.00
2192;BME280;1102;49.718;11.902;2023-02-16T00:23:35;97317.59;;;-2.80;100.00
2192;BME280;1102;49.718;11.902;2023-02-16T00:26:02;97291.13;;;-3.01;100.00
2192;BME280;1102;49.718;11.902;2023-02-16T00:28:29;97279.78;;;-3.18;100.00
2192;BME280;1102;49.718;11.902;2023-02-16T00:30:58;97334.44;;;-2.96;100.00
2192;BME280;1102;49.718;11.902;2023-02-16T00:33:25;97318.00;;;-3.02;100.00
2192;BME280;1102;49.718;11.902;2023-02-16T00:35:52;97300.38;;;-3.11;100.00
2192;BME280;1102;49.718;11.902;2023-02-16T00:38:18;97322.59;;;-2.85;100.00
2192;BME280;1102;49.718;11.902;2023-02-16T00:40:45;97295.88;;;-2.98;100.00
2192;BME280;1102;49.718;11.902;2023-02-16T00:43:28;97302.84;;;-2.98;100.00
2192;BME280;1102;49.718;11.902;2023-02-16T00:45:57;97307.88;;;-2.85;100.00
2192;BME280;1102;49.718;11.902;2023-02-16T00:48:24;97277.06;;;-3.05;100.00
2192;BME280;1102;49.718;11.902;2023-02-16T00:50:52;97317.00;;;-2.82;100.00
2192;BME280;1102;49.718;11.902;2023-02-16T00:53:18;97317.94;;;-2.77;100.00
2192;BME280;1102;49.718;11.902;2023-02-16T00:55:45;97321.31;;;-2.76;100.00
2192;BME280;1102;49.718;11.902;2023-02-16T00:58:18;97318.72;;;-2.76;100.00
2192;BME280;1102;49.718;11.902;2023-02-16T01:01:00;97306.94;;;-2.90;100.00
2192;BME280;1102;49.718;11.902;2023-02-16T01:03:28;97303.78;;;-2.92;100.00
2192;BME280;1102;49.718;11.902;2023-02-16T01:05:55;97303.97;;;-2.94;100.00
2192;BME280;1102;49.718;11.902;2023-02-16T01:08:41;97320.88;;;-2.91;100.00
2192;BME280;1102;49.718;11.902;2023-02-16T01:11:27;97284.66;;;-3.28;100.00
2192;BME280;1102;49.718;11.902;2023-02-16T01:13:55;97274.09;;;-3.45;100.00
2192;BME280;1102;49.718;11.902;2023-02-16T01:16:26;97313.09;;;-3.10;100.00
2192;BME280;1102;49.718;11.902;2023-02-16T01:18:52;97286.22;;;-3.09;100.00
2192;BME280;1102;49.718;11.902;2023-02-16T01:21:20;97314.72;;;-2.90;100.00
2192;BME280;1102;49.718;11.902;2023-02-16T01:23:47;97312.47;;;-2.87;100.00
2192;BME280;1102;49.718;11.902;2023-02-16T01:26:16;97307.53;;;-2.88;100.00
2192;BME280;1102;49.718;11.902;2023-02-16T01:28:45;97306.63;;;-2.82;100.00
2192;BME280;1102;49.718;11.902;2023-02-16T01:31:14;97305.28;;;-2.85;100.00
2192;BME280;1102;49.718;11.902;2023-02-16T01:33:42;97309.59;;;-2.79;100.00
2192;BME280;1102;49.718;11.902;2023-02-16T01:36:33;97311.81;;;-2.82;100.00
2192;BME280;1102;49.718;11.902;2023-02-16T01:39:01;97292.28;;;-2.97;100.00
2192;BME280;1102;49.718;11.902;2023-02-16T01:44:04;97298.31;;;-2.84;100.00
2192;BME280;1102;49.718;11.902;2023-02-16T01:46:38;97304.06;;;-2.82;100.00
2192;BME280;1102;49.718;11.902;2023-02-16T01:49:19;97316.06;;;-2.88;100.00
2192;BME280;1102;49.718;11.902;2023-02-16T01:51:56;97311.34;;;-2.91;100.00
2192;BME280;1102;49.718;11.902;2023-02-16T01:54:32;97306.88;;;-2.84;100.00
2192;BME280;1102;49.718;11.902;2023-02-16T01:57:12;97270.44;;;-3.01;100.00
2192;BME280;1102;49.718;11.902;2023-02-16T02:02:35;97293.63;;;-2.76;100.00
2192;BME280;1102;49.718;11.902;2023-02-16T02:05:11;97283.78;;;-2.85;100.00
2192;BME280;1102;49.718;11.902;2023-02-16T02:08:10;97289.25;;;-2.75;100.00
2192;BME280;1102;49.718;11.902;2023-02-16T02:10:47;97283.09;;;-2.92;100.00
2192;BME280;1102;49.718;11.902;2023-02-16T02:15:59;97294.31;;;-2.80;100.00
2192;BME280;1102;49.718;11.902;2023-02-16T02:18:26;97282.72;;;-2.96;100.00
2192;BME280;1102;49.718;11.902;2023-02-16T02:32:41;97255.78;;;-3.25;100.00
2192;BME280;1102;49.718;11.902;2023-02-16T02:35:31;97274.19;;;-3.15;100.00
2192;BME280;1102;49.718;11.902;2023-02-16T02:38:11;97277.13;;;-3.11;100.00
2192;BME280;1102;49.718;11.902;2023-02-16T02:41:12;97259.66;;;-3.16;100.00
2192;BME280;1102;49.718;11.902;2023-02-16T02:43:51;97267.78;;;-3.12;100.00
2192;BME280;1102;49.718;11.902;2023-02-16T02:46:29;97233.94;;;-3.29;100.00
2192;BME280;1102;49.718;11.902;2023-02-16T02:48:57;97243.50;;;-3.11;100.00
2192;BME280;1102;49.718;11.902;2023-02-16T02:51:24;97262.56;;;-3.06;100.00
2192;BME280;1102;49.718;11.902;2023-02-16T02:57:22;97267.13;;;-3.08;100.00
2192;BME280;1102;49.718;11.902;2023-02-16T03:00:15;97212.97;;;-3.39;100.00
2192;BME280;1102;49.718;11.902;2023-02-16T03:05:37;97212.69;;;-3.31;100.00
2192;BME280;1102;49.718;11.902;2023-02-16T03:08:10;97250.97;;;-3.03;100.00
2192;BME280;1102;49.718;11.902;2023-02-16T03:10:45;97229.66;;;-3.17;100.00
2192;BME280;1102;49.718;11.902;2023-02-16T03:13:44;97253.78;;;-3.05;100.00
2192;BME280;1102;49.718;11.902;2023-02-16T03:16:15;97263.69;;;-3.02;100.00
2192;BME280;1102;49.718;11.902;2023-02-16T03:18:46;97268.13;;;-3.09;100.00
2192;BME280;1102;49.718;11.902;2023-02-16T03:21:33;97267.00;;;-3.13;100.00
2192;BME280;1102;49.718;11.902;2023-02-16T03:24:26;97261.69;;;-3.18;100.00
2192;BME280;1102;49.718;11.902;2023-02-16T03:27:30;97248.25;;;-3.27;100.00
2192;BME280;1102;49.718;11.902;2023-02-16T03:30:18;97239.91;;;-3.29;100.00
2192;BME280;1102;49.718;11.902;2023-02-16T03:32:47;97227.13;;;-3.42;100.00
2192;BME280;1102;49.718;11.902;2023-02-16T03:35:14;97240.63;;;-3.21;100.00
2192;BME280;1102;49.718;11.902;2023-02-16T03:37:42;97249.25;;;-3.28;100.00
2192;BME280;1102;49.718;11.902;2023-02-16T03:40:12;97218.50;;;-3.54;100.00
2192;BME280;1102;49.718;11.902;2023-02-16T03:43:04;97246.22;;;-3.24;100.00
2192;BME280;1102;49.718;11.902;2023-02-16T03:45:33;97247.38;;;-3.39;100.00
2192;BME280;1102;49.718;11.902;2023-02-16T03:48:01;97231.03;;;-3.33;100.00
2192;BME280;1102;49.718;11.902;2023-02-16T03:50:28;97238.03;;;-3.40;100.00
2192;BME280;1102;49.718;11.902;2023-02-16T03:52:55;97232.88;;;-3.40;100.00
2192;BME280;1102;49.718;11.902;2023-02-16T03:55:36;97232.72;;;-3.45;100.00
2192;BME280;1102;49.718;11.902;2023-02-16T03:58:04;97215.00;;;-3.41;100.00
2192;BME280;1102;49.718;11.902;2023-02-16T04:00:32;97231.88;;;-3.20;100.00
2192;BME280;1102;49.718;11.902;2023-02-16T04:02:59;97234.25;;;-3.19;100.00
2192;BME280;1102;49.718;11.902;2023-02-16T04:05:26;97239.47;;;-3.07;100.00
2192;BME280;1102;49.718;11.902;2023-02-16T04:07:53;97217.00;;;-3.43;100.00
2192;BME280;1102;49.718;11.902;2023-02-16T04:10:20;97226.91;;;-3.22;100.00
2192;BME280;1102;49.718;11.902;2023-02-16T04:12:46;97255.06;;;-3.14;100.00
2192;BME280;1102;49.718;11.902;2023-02-16T04:15:16;97249.59;;;-3.24;100.00
2192;BME280;1102;49.718;11.902;2023-02-16T04:17:43;97257.94;;;-3.22;100.00
2192;BME280;1102;49.718;11.902;2023-02-16T04:20:13;97251.75;;;-3.21;100.00
2192;BME280;1102;49.718;11.902;2023-02-16T04:22:40;97256.50;;;-3.18;100.00
2192;BME280;1102;49.718;11.902;2023-02-16T04:25:07;97252.91;;;-3.17;100.00
2192;BME280;1102;49.718;11.902;2023-02-16T04:27:35;97249.53;;;-3.17;100.00
2192;BME280;1102;49.718;11.902;2023-02-16T04:30:04;97259.31;;;-3.19;100.00
2192;BME280;1102;49.718;11.902;2023-02-16T04:32:31;97236.66;;;-3.24;100.00
2192;BME280;1102;49.718;11.902;2023-02-16T04:34:58;97224.75;;;-3.43;100.00
2192;BME280;1102;49.718;11.902;2023-02-16T04:37:25;97213.63;;;-3.44;100.00
2192;BME280;1102;49.718;11.902;2023-02-16T04:39:51;97197.25;;;-3.38;100.00
2192;BME280;1102;49.718;11.902;2023-02-16T04:42:18;97210.38;;;-3.21;100.00
2192;BME280;1102;49.718;11.902;2023-02-16T04:44:45;97214.63;;;-3.27;100.00
2192;BME280;1102;49.718;11.902;2023-02-16T04:47:11;97242.34;;;-3.15;100.00
2192;BME280;1102;49.718;11.902;2023-02-16T04:49:38;97249.47;;;-3.11;100.00
2192;BME280;1102;49.718;11.902;2023-02-16T04:52:05;97238.84;;;-3.03;100.00
2192;BME280;1102;49.718;11.902;2023-02-16T04:54:32;97239.13;;;-3.11;100.00
2192;BME280;1102;49.718;11.902;2023-02-16T04:56:59;97258.72;;;-3.21;100.00
2192;BME280;1102;49.718;11.902;2023-02-16T04:59:26;97237.91;;;-3.27;100.00
2192;BME280;1102;49.718;11.902;2023-02-16T05:01:52;97230.41;;;-3.35;100.00
2192;BME280;1102;49.718;11.902;2023-02-16T05:04:19;97219.94;;;-3.40;100.00
2192;BME280;1102;49.718;11.902;2023-02-16T05:06:46;97236.75;;;-3.31;100.00
2192;BME280;1102;49.718;11.902;2023-02-16T05:09:12;97244.94;;;-3.34;100.00
2192;BME280;1102;49.718;11.902;2023-02-16T05:11:39;97252.41;;;-3.25;100.00
2192;BME280;1102;49.718;11.902;2023-02-16T05:14:30;97256.78;;;-3.26;100.00
2192;BME280;1102;49.718;11.902;2023-02-16T05:17:17;97233.94;;;-3.29;100.00
2192;BME280;1102;49.718;11.902;2023-02-16T05:19:50;97248.97;;;-3.19;100.00
2192;BME280;1102;49.718;11.902;2023-02-16T05:22:17;97232.03;;;-3.34;100.00
2192;BME280;1102;49.718;11.902;2023-02-16T05:24:44;97221.69;;;-3.34;100.00
2192;BME280;1102;49.718;11.902;2023-02-16T05:27:14;97256.16;;;-3.03;100.00
2192;BME280;1102;49.718;11.902;2023-02-16T05:29:41;97246.16;;;-3.00;100.00
2192;BME280;1102;49.718;11.902;2023-02-16T05:32:08;97245.50;;;-3.13;100.00
2192;BME280;1102;49.718;11.902;2023-02-16T05:34:35;97270.66;;;-3.02;100.00
2192;BME280;1102;49.718;11.902;2023-02-16T05:37:02;97247.75;;;-3.17;100.00
2192;BME280;1102;49.718;11.902;2023-02-16T05:39:28;97270.31;;;-3.06;100.00
2192;BME280;1102;49.718;11.902;2023-02-16T05:41:55;97263.34;;;-3.05;100.00
2192;BME280;1102;49.718;11.902;2023-02-16T05:44:22;97240.78;;;-3.16;100.00
2192;BME280;1102;49.718;11.902;2023-02-16T05:46:49;97259.97;;;-3.06;100.00
2192;BME280;1102;49.718;11.902;2023-02-16T05:49:16;97248.38;;;-3.03;100.00
2192;BME280;1102;49.718;11.902;2023-02-16T05:51:43;97282.44;;;-3.06;100.00
2192;BME280;1102;49.718;11.902;2023-02-16T05:54:11;97296.66;;;-2.97;100.00
2192;BME280;1102;49.718;11.902;2023-02-16T05:56:49;97291.84;;;-3.12;100.00
2192;BME280;1102;49.718;11.902;2023-02-16T05:59:15;97272.00;;;-3.36;100.00
2192;BME280;1102;49.718;11.902;2023-02-16T06:01:43;97294.38;;;-3.05;100.00
2192;BME280;1102;49.718;11.902;2023-02-16T06:04:16;97288.13;;;-3.16;100.00
2192;BME280;1102;49.718;11.902;2023-02-16T06:06:42;97252.56;;;-3.64;100.00
2192;BME280;1102;49.718;11.902;2023-02-16T06:09:09;97279.81;;;-3.43;100.00
2192;BME280;1102;49.718;11.902;2023-02-16T06:11:36;97279.69;;;-3.30;100.00
2192;BME280;1102;49.718;11.902;2023-02-16T06:14:11;97283.50;;;-3.14;100.00
2192;BME280;1102;49.718;11.902;2023-02-16T06:16:40;97287.53;;;-3.18;100.00
2192;BME280;1102;49.718;11.902;2023-02-16T06:19:07;97269.84;;;-3.21;100.00
2192;BME280;1102;49.718;11.902;2023-02-16T06:21:37;97268.50;;;-3.23;100.00
2192;BME280;1102;49.718;11.902;2023-02-16T06:24:04;97262.69;;;-3.19;100.00
2192;BME280;1102;49.718;11.902;2023-02-16T06:26:31;97267.88;;;-3.19;100.00
2192;BME280;1102;49.718;11.902;2023-02-16T06:28:58;97255.66;;;-3.30;100.00
2192;BME280;1102;49.718;11.902;2023-02-16T06:31:25;97290.19;;;-3.24;100.00
2192;BME280;1102;49.718;11.902;2023-02-16T06:33:52;97262.81;;;-3.32;100.00
2192;BME280;1102;49.718;11.902;2023-02-16T06:36:19;97282.50;;;-3.31;100.00
2192;BME280;1102;49.718;11.902;2023-02-16T06:38:46;97245.91;;;-3.53;100.00
2192;BME280;1102;49.718;11.902;2023-02-16T06:41:14;97256.50;;;-3.36;100.00
2192;BME280;1102;49.718;11.902;2023-02-16T06:44:00;97273.16;;;-3.14;100.00
2192;BME280;1102;49.718;11.902;2023-02-16T06:46:28;97294.50;;;-3.00;100.00
2192;BME280;1102;49.718;11.902;2023-02-16T06:48:55;97300.34;;;-3.05;100.00
2192;BME280;1102;49.718;11.902;2023-02-16T06:51:22;97291.94;;;-3.00;100.00
2192;BME280;1102;49.718;11.902;2023-02-16T06:53:48;97253.69;;;-3.35;100.00
2192;BME280;1102;49.718;11.902;2023-02-16T06:56:15;97300.38;;;-3.11;100.00
2192;BME280;1102;49.718;11.902;2023-02-16T06:58:42;97283.00;;;-3.22;100.00
2192;BME280;1102;49.718;11.902;2023-02-16T07:01:09;97264.19;;;-3.30;100.00
2192;BME280;1102;49.718;11.902;2023-02-16T07:03:35;97265.13;;;-3.24;100.00
2192;BME280;1102;49.718;11.902;2023-02-16T07:06:02;97289.13;;;-3.17;100.00
2192;BME280;1102;49.718;11.902;2023-02-16T07:08:29;97271.94;;;-3.30;100.00
2192;BME280;1102;49.718;11.902;2023-02-16T07:10:56;97284.31;;;-3.13;100.00
2192;BME280;1102;49.718;11.902;2023-02-16T07:13:22;97269.13;;;-3.28;100.00
2192;BME280;1102;49.718;11.902;2023-02-16T07:15:49;97286.97;;;-3.20;100.00
2192;BME280;1102;49.718;11.902;2023-02-16T07:18:16;97261.09;;;-3.38;100.00
2192;BME280;1102;49.718;11.902;2023-02-16T07:20:42;97306.56;;;-3.12;100.00
2192;BME280;1102;49.718;11.902;2023-02-16T07:23:09;97297.59;;;-3.10;100.00
2192;BME280;1102;49.718;11.902;2023-02-16T07:25:36;97289.25;;;-3.12;100.00
2192;BME280;1102;49.718;11.902;2023-02-16T07:28:02;97297.88;;;-3.00;100.00
2192;BME280;1102;49.718;11.902;2023-02-16T07:30:29;97289.84;;;-2.91;100.00
2192;BME280;1102;49.718;11.902;2023-02-16T07:32:56;97269.72;;;-3.08;100.00
2192;BME280;1102;49.718;11.902;2023-02-16T07:35:23;97246.81;;;-3.41;100.00
2192;BME280;1102;49.718;11.902;2023-02-16T07:37:49;97292.13;;;-3.02;100.00
2192;BME280;1102;49.718;11.902;2023-02-16T07:40:16;97255.66;;;-3.30;100.00
2192;BME280;1102;49.718;11.902;2023-02-16T07:42:43;97293.63;;;-2.94;100.00
2192;BME280;1102;49.718;11.902;2023-02-16T07:45:10;97293.56;;;-2.87;100.00
2192;BME280;1102;49.718;11.902;2023-02-16T07:47:36;97268.72;;;-3.07;100.00
2192;BME280;1102;49.718;11.902;2023-02-16T07:50:03;97286.31;;;-2.97;100.00
2192;BME280;1102;49.718;11.902;2023-02-16T07:52:30;97291.00;;;-3.06;100.00
2192;BME280;1102;49.718;11.902;2023-02-16T07:54:57;97307.97;;;-2.91;100.00
2192;BME280;1102;49.718;11.902;2023-02-16T07:57:25;97277.63;;;-3.03;100.00
2192;BME280;1102;49.718;11.902;2023-02-16T07:59:53;97302.06;;;-2.80;100.00
2192;BME280;1102;49.718;11.902;2023-02-16T08:02:21;97269.31;;;-3.05;100.00
2192;BME280;1102;49.718;11.902;2023-02-16T08:04:49;97284.28;;;-2.95;100.00
2192;BME280;1102;49.718;11.902;2023-02-16T08:07:18;97282.44;;;-2.88;100.00
2192;BME280;1102;49.718;11.902;2023-02-16T08:09:45;97282.38;;;-3.00;100.00
2192;BME280;1102;49.718;11.902;2023-02-16T08:12:13;97312.13;;;-2.90;100.00
2192;BME280;1102;49.718;11.902;2023-02-16T08:14:40;97305.72;;;-3.06;100.00
2192;BME280;1102;49.718;11.902;2023-02-16T08:17:08;97287.09;;;-3.15;100.00
2192;BME280;1102;49.718;11.902;2023-02-16T08:19:35;97252.25;;;-3.12;100.00
2192;BME280;1102;49.718;11.902;2023-02-16T08:22:03;97282.94;;;-2.98;100.00
2192;BME280;1102;49.718;11.902;2023-02-16T08:24:30;97281.16;;;-2.79;100.00
2192;BME280;1102;49.718;11.902;2023-02-16T08:26:57;97273.22;;;-2.84;100.00
2192;BME280;1102;49.718;11.902;2023-02-16T08:29:24;97294.16;;;-2.67;100.00
2192;BME280;1102;49.718;11.902;2023-02-16T08:31:51;97301.09;;;-2.49;100.00
2192;BME280;1102;49.718;11.902;2023-02-16T08:34:19;97299.97;;;-2.42;100.00
2192;BME280;1102;49.718;11.902;2023-02-16T08:36:51;97310.34;;;-2.42;100.00
2192;BME280;1102;49.718;11.902;2023-02-16T08:41:47;97305.63;;;-2.63;100.00
2192;BME280;1102;49.718;11.902;2023-02-16T08:44:15;97313.75;;;-2.59;100.00
2192;BME280;1102;49.718;11.902;2023-02-16T08:46:43;97299.25;;;-2.79;100.00
2192;BME280;1102;49.718;11.902;2023-02-16T08:49:11;97317.00;;;-2.64;100.00
2192;BME280;1102;49.718;11.902;2023-02-16T08:51:44;97321.16;;;-2.63;100.00
2192;BME280;1102;49.718;11.902;2023-02-16T08:54:17;97295.50;;;-2.64;100.00
2192;BME280;1102;49.718;11.902;2023-02-16T08:56:44;97300.06;;;-2.48;100.00
2192;BME280;1102;49.718;11.902;2023-02-16T08:59:14;97295.84;;;-2.61;100.00
2192;BME280;1102;49.718;11.902;2023-02-16T09:01:42;97329.19;;;-2.34;100.00
2192;BME280;1102;49.718;11.902;2023-02-16T09:04:08;97296.53;;;-2.54;100.00
2192;BME280;1102;49.718;11.902;2023-02-16T09:06:36;97329.78;;;-2.21;100.00
2192;BME280;1102;49.718;11.902;2023-02-16T09:09:04;97308.59;;;-2.29;100.00
2192;BME280;1102;49.718;11.902;2023-02-16T09:11:31;97317.63;;;-2.20;100.00
2192;BME280;1102;49.718;11.902;2023-02-16T09:13:58;97316.63;;;-2.19;100.00
2192;BME280;1102;49.718;11.902;2023-02-16T09:16:25;97336.59;;;-2.08;100.00
2192;BME280;1102;49.718;11.902;2023-02-16T09:18:54;97325.09;;;-2.12;100.00
2192;BME280;1102;49.718;11.902;2023-02-16T09:21:24;97358.38;;;-1.97;100.00
2192;BME280;1102;49.718;11.902;2023-02-16T09:23:53;97362.94;;;-1.81;100.00
2192;BME280;1102;49.718;11.902;2023-02-16T09:26:22;97365.06;;;-1.78;100.00
2192;BME280;1102;49.718;11.902;2023-02-16T09:28:51;97356.97;;;-1.82;100.00
2192;BME280;1102;49.718;11.902;2023-02-16T09:31:20;97359.44;;;-1.87;100.00
2192;BME280;1102;49.718;11.902;2023-02-16T09:33:54;97363.38;;;-1.84;100.00
2192;BME280;1102;49.718;11.902;2023-02-16T09:36:21;97356.16;;;-1.82;100.00
2192;BME280;1102;49.718;11.902;2023-02-16T09:38:48;97376.97;;;-1.59;100.00
2192;BME280;1102;49.718;11.902;2023-02-16T09:44:05;97374.94;;;-1.57;100.00
2192;BME280;1102;49.718;11.902;2023-02-16T09:46:36;97365.03;;;-1.48;100.00
2192;BME280;1102;49.718;11.902;2023-02-16T09:49:03;97352.06;;;-1.48;100.00
2192;BME280;1102;49.718;11.902;2023-02-16T09:51:38;97363.66;;;-1.51;100.00
2192;BME280;1102;49.718;11.902;2023-02-16T09:54:21;97364.69;;;-1.40;100.00
2192;BME280;1102;49.718;11.902;2023-02-16T09:56:56;97365.25;;;-1.38;100.00
2192;BME280;1102;49.718;11.902;2023-02-16T10:05:31;97375.78;;;-1.09;100.00
2192;BME280;1102;49.718;11.902;2023-02-16T10:08:08;97365.06;;;-1.13;100.00
2192;BME280;1102;49.718;11.902;2023-02-16T10:10:49;97344.75;;;-1.39;100.00
2192;BME280;1102;49.718;11.902;2023-02-16T10:16:05;97318.81;;;-1.39;100.00
2192;BME280;1102;49.718;11.902;2023-02-16T10:18:39;97361.59;;;-1.07;100.00
2192;BME280;1102;49.718;11.902;2023-02-16T10:21:17;97332.34;;;-1.02;100.00
2192;BME280;1102;49.718;11.902;2023-02-16T10:23:55;97355.47;;;-0.89;100.00
2192;BME280;1102;49.718;11.902;2023-02-16T10:29:15;97359.63;;;-0.76;100.00
2192;BME280;1102;49.718;11.902;2023-02-16T10:42:35;97352.38;;;-0.63;100.00
2192;BME280;1102;49.718;11.902;2023-02-16T10:47:42;97353.25;;;-0.45;100.00
2192;BME280;1102;49.718;11.902;2023-02-16T10:50:26;97321.63;;;-0.54;100.00
2192;BME280;1102;49.718;11.902;2023-02-16T10:52:58;97340.19;;;-0.22;100.00
2192;BME280;1102;49.718;11.902;2023-02-16T10:55:26;97347.16;;;-0.11;100.00
2192;BME280;1102;49.718;11.902;2023-02-16T10:57:56;97349.84;;;-0.06;100.00
2192;BME280;1102;49.718;11.902;2023-02-16T11:00:33;97346.72;;;-0.19;100.00
2192;BME280;1102;49.718;11.902;2023-02-16T11:03:03;97346.97;;;-0.21;100.00
2192;BME280;1102;49.718;11.902;2023-02-16T11:05:38;97344.88;;;-0.07;100.00
2192;BME280;1102;49.718;11.902;2023-02-16T11:08:06;97329.81;;;-0.05;100.00
2192;BME280;1102;49.718;11.902;2023-02-16T11:10:37;97341.59;;;-0.14;100.00
2192;BME280;1102;49.718;11.902;2023-02-16T11:13:05;97325.38;;;0.07;100.00
2192;BME280;1102;49.718;11.902;2023-02-16T11:15:35;97299.06;;;0.04;100.00
2192;BME280;1102;49.718;11.902;2023-02-16T11:18:07;97323.50;;;0.19;100.00
2192;BME280;1102;49.718;11.902;2023-02-16T11:26:06;97305.59;;;0.40;100.00
2192;BME280;1102;49.718;11.902;2023-02-16T11:28:42;97316.09;;;0.62;100.00
2192;BME280;1102;49.718;11.902;2023-02-16T11:31:32;97305.66;;;0.78;100.00
2192;BME280;1102;49.718;11.902;2023-02-16T11:39:04;97307.38;;;0.89;100.00
2192;BME280;1102;49.718;11.902;2023-02-16T11:41:33;97276.44;;;0.93;100.00
2192;BME280;1102;49.718;11.902;2023-02-16T11:44:01;97292.81;;;1.10;100.00
2192;BME280;1102;49.718;11.902;2023-02-16T11:46:37;97288.75;;;1.19;100.00
2192;BME280;1102;49.718;11.902;2023-02-16T11:49:39;97297.72;;;1.29;100.00
2192;BME280;1102;49.718;11.902;2023-02-16T11:52:24;97293.72;;;1.65;100.00
2192;BME280;1102;49.718;11.902;2023-02-16T11:54:54;97284.03;;;1.87;100.00
2192;BME280;1102;49.718;11.902;2023-02-16T11:57:29;97283.69;;;1.78;100.00
2192;BME280;1102;49.718;11.902;2023-02-16T11:59:58;97298.38;;;2.17;100.00
2192;BME280;1102;49.718;11.902;2023-02-16T12:02:48;97293.31;;;2.37;100.00
2192;BME280;1102;49.718;11.902;2023-02-16T12:05:40;97283.53;;;2.17;100.00
2192;BME280;1102;49.718;11.902;2023-02-16T12:19:43;97251.22;;;2.60;100.00
2192;BME280;1102;49.718;11.902;2023-02-16T12:27:34;97275.25;;;3.98;100.00
2192;BME280;1102;49.718;11.902;2023-02-16T12:30:24;97277.13;;;4.43;100.00
2192;BME280;1102;49.718;11.902;2023-02-16T12:41:46;97261.50;;;5.13;100.00
2192;BME280;1102;49.718;11.902;2023-02-16T12:44:17;97264.22;;;5.52;100.00
2192;BME280;1102;49.718;11.902;2023-02-16T12:46:48;97262.28;;;5.73;100.00
2192;BME280;1102;49.718;11.902;2023-02-16T12:49:57;97257.84;;;5.68;100.00
2192;BME280;1102;49.718;11.902;2023-02-16T12:52:50;97263.97;;;6.03;100.00
2192;BME280;1102;49.718;11.902;2023-02-16T12:55:33;97231.78;;;5.38;100.00
2192;BME280;1102;49.718;11.902;2023-02-16T12:58:20;97231.38;;;5.64;100.00
2192;BME280;1102;49.718;11.902;2023-02-16T13:00:51;97223.09;;;5.86;100.00
2192;BME280;1102;49.718;11.902;2023-02-16T13:06:02;97233.63;;;6.20;100.00
2192;BME280;1102;49.718;11.902;2023-02-16T13:08:55;97251.00;;;6.74;100.00
2192;BME280;1102;49.718;11.902;2023-02-16T13:11:37;97247.41;;;6.36;100.00
2192;BME280;1102;49.718;11.902;2023-02-16T13:14:16;97209.44;;;7.24;100.00
2192;BME280;1102;49.718;11.902;2023-02-16T13:16:52;97233.41;;;7.60;100.00
2192;BME280;1102;49.718;11.902;2023-02-16T13:19:20;97222.91;;;7.79;100.00
2192;BME280;1102;49.718;11.902;2023-02-16T13:25:05;97244.09;;;8.58;100.00
2192;BME280;1102;49.718;11.902;2023-02-16T13:31:05;97247.13;;;8.93;100.00
2192;BME280;1102;49.718;11.902;2023-02-16T13:36:49;97249.09;;;8.87;100.00
2192;BME280;1102;49.718;11.902;2023-02-16T13:39:30;97254.94;;;9.53;100.00
2192;BME280;1102;49.718;11.902;2023-02-16T13:44:48;97248.06;;;10.01;100.00
2192;BME280;1102;49.718;11.902;2023-02-16T13:47:21;97189.50;;;9.63;100.00
2192;BME280;1102;49.718;11.902;2023-02-16T13:49:56;97219.66;;;10.07;100.00
2192;BME280;1102;49.718;11.902;2023-02-16T13:52:30;97243.72;;;10.73;100.00
2192;BME280;1102;49.718;11.902;2023-02-16T13:55:01;97226.97;;;10.55;100.00
2192;BME280;1102;49.718;11.902;2023-02-16T14:00:43;97252.59;;;10.46;100.00
2192;BME280;1102;49.718;11.902;2023-02-16T14:05:48;97255.09;;;10.73;100.00
2192;BME280;1102;49.718;11.902;2023-02-16T14:18:43;97246.88;;;10.52;100.00
2192;BME280;1102;49.718;11.902;2023-02-16T14:23:55;97248.34;;;10.98;100.00
2192;BME280;1102;49.718;11.902;2023-02-16T14:26:23;97252.09;;;11.06;100.00
2192;BME280;1102;49.718;11.902;2023-02-16T14:28:58;97247.78;;;10.79;100.00
2192;BME280;1102;49.718;11.902;2023-02-16T14:31:27;97242.91;;;10.19;100.00
2192;BME280;1102;49.718;11.902;2023-02-16T14:34:02;97242.66;;;10.06;100.00
2192;BME280;1102;49.718;11.902;2023-02-16T14:36:31;97226.53;;;9.72;100.00
2192;BME280;1102;49.718;11.902;2023-02-16T14:38:59;97251.66;;;9.83;100.00
2192;BME280;1102;49.718;11.902;2023-02-16T14:41:34;97223.69;;;10.27;100.00
2192;BME280;1102;49.718;11.902;2023-02-16T14:52:38;97245.75;;;10.45;100.00
2192;BME280;1102;49.718;11.902;2023-02-16T15:00:36;97248.31;;;10.89;100.00
2192;BME280;1102;49.718;11.902;2023-02-16T15:03:22;97235.91;;;10.36;100.00
2192;BME280;1102;49.718;11.902;2023-02-16T15:05:58;97234.09;;;10.46;100.00
2192;BME280;1102;49.718;11.902;2023-02-16T15:08:27;97181.91;;;10.06;100.00
2192;BME280;1102;49.718;11.902;2023-02-16T15:11:26;97247.09;;;10.64;100.00
2192;BME280;1102;49.718;11.902;2023-02-16T15:13:54;97179.91;;;10.12;100.00
2192;BME280;1102;49.718;11.902;2023-02-16T15:16:30;97222.84;;;9.59;100.00
2192;BME280;1102;49.718;11.902;2023-02-16T15:19:02;97188.16;;;8.28;100.00
2192;BME280;1102;49.718;11.902;2023-02-16T15:21:33;97169.13;;;7.48;100.00
2192;BME280;1102;49.718;11.902;2023-02-16T15:24:00;97188.13;;;7.26;100.00
2192;BME280;1102;49.718;11.902;2023-02-16T15:26:33;97194.06;;;7.13;100.00
2192;BME280;1102;49.718;11.902;2023-02-16T15:29:19;97233.19;;;6.95;100.00
2192;BME280;1102;49.718;11.902;2023-02-16T15:31:47;97224.31;;;6.62;100.00
2192;BME280;1102;49.718;11.902;2023-02-16T15:34:34;97224.84;;;5.62;100.00
2192;BME280;1102;49.718;11.902;2023-02-16T15:37:20;97211.56;;;4.79;100.00
2192;BME280;1102;49.718;11.902;2023-02-16T15:39:48;97153.06;;;4.08;100.00
2192;BME280;1102;49.718;11.902;2023-02-16T15:42:36;97188.66;;;4.09;100.00
2192;BME280;1102;49.718;11.902;2023-02-16T15:45:26;97163.53;;;3.58;100.00
2192;BME280;1102;49.718;11.902;2023-02-16T15:47:52;97178.94;;;3.59;100.00
2192;BME280;1102;49.718;11.902;2023-02-16T15:50:22;97144.38;;;3.11;100.00